createdAt,value
2023-04-14T00:00:58.729Z,11.43
2023-04-14T00:03:44.398Z,13.48
2023-04-14T00:06:30.873Z,9.05
2023-04-14T00:09:16.648Z,8.45
2023-04-14T00:12:01.915Z,14.65
2023-04-14T00:14:49.234Z,14.77
2023-04-14T00:17:34.618Z,13.18
2023-04-14T00:20:20.120Z,10.40
2023-04-14T00:23:05.757Z,11.38
2023-04-14T00:25:51.274Z,10.68
2023-04-14T00:28:36.549Z,10.13
2023-04-14T00:31:22.046Z,10.60
2023-04-14T00:34:07.883Z,10.82
2023-04-14T00:36:53.381Z,11.32
2023-04-14T00:39:38.830Z,12.05
2023-04-14T00:42:24.116Z,12.90
2023-04-14T00:45:09.721Z,11.93
2023-04-14T00:47:55.863Z,12.82
2023-04-14T00:50:42.474Z,11.82
2023-04-14T00:53:28.825Z,11.15
2023-04-14T00:56:15.378Z,16.40
2023-04-14T00:59:02.129Z,15.23
2023-04-14T01:01:48.114Z,13.57
2023-04-14T01:04:49.635Z,10.55
2023-04-14T01:07:38.739Z,17.13
2023-04-14T01:10:31.046Z,14.15
2023-04-14T01:13:24.158Z,13.77
2023-04-14T01:16:17.967Z,10.95
2023-04-14T01:19:25.310Z,13.32
2023-04-14T01:22:13.602Z,9.88
2023-04-14T01:25:36.800Z,13.18
2023-04-14T01:29:04.231Z,9.65
2023-04-14T01:32:01.172Z,10.77
2023-04-14T01:35:00.629Z,11.60
2023-04-14T01:37:49.841Z,14.52
2023-04-14T01:40:37.365Z,10.35
2023-04-14T01:43:26.856Z,14.07
2023-04-14T01:46:15.827Z,8.55
2023-04-14T01:49:03.035Z,9.48
2023-04-14T01:51:49.039Z,10.05
2023-04-14T01:54:37.205Z,11.05
2023-04-14T01:57:26.555Z,14.48
2023-04-14T02:00:12.943Z,14.70
2023-04-14T02:03:03.046Z,17.10
2023-04-14T02:05:52.376Z,19.30
2023-04-14T02:08:41.266Z,21.63
2023-04-14T02:11:29.626Z,22.42
2023-04-14T02:14:19.208Z,21.05
2023-04-14T02:17:07.654Z,23.08
2023-04-14T02:19:55.005Z,20.20
2023-04-14T02:22:40.705Z,20.90
2023-04-14T02:25:32.248Z,21.10
2023-04-14T02:28:21.672Z,20.80
2023-04-14T02:31:10.224Z,20.67
2023-04-14T02:33:57.995Z,23.13
2023-04-14T02:36:52.488Z,18.40
2023-04-14T02:39:45.352Z,19.02
2023-04-14T02:42:32.213Z,23.75
2023-04-14T02:45:26.271Z,21.85
2023-04-14T02:48:15.949Z,15.50
2023-04-14T02:51:03.611Z,15.98
2023-04-14T02:53:50.769Z,16.83
2023-04-14T02:59:44.800Z,11.43
2023-04-14T03:02:33.061Z,9.45
2023-04-14T03:05:24.539Z,8.65
2023-04-14T03:08:18.522Z,9.40
2023-04-14T03:11:08.273Z,12.05
2023-04-14T03:13:56.364Z,7.50
2023-04-14T03:16:43.707Z,8.82
2023-04-14T03:19:29.722Z,10.75
2023-04-14T03:22:17.961Z,10.70
2023-04-14T03:25:03.597Z,11.05
2023-04-14T03:27:52.382Z,15.10
2023-04-14T03:30:44.055Z,13.05
2023-04-14T03:33:32.426Z,15.02
2023-04-14T03:36:20.878Z,9.60
2023-04-14T03:39:08.171Z,11.77
2023-04-14T03:41:57.237Z,10.20
2023-04-14T03:44:49.950Z,11.75
2023-04-14T03:47:36.354Z,18.23
2023-04-14T03:50:23.134Z,13.85
2023-04-14T03:53:12.805Z,11.43
2023-04-14T03:56:00.003Z,13.77
2023-04-14T03:58:47.336Z,12.38
2023-04-14T04:01:36.989Z,7.70
2023-04-14T04:04:24.362Z,11.10
2023-04-14T04:07:13.564Z,10.15
2023-04-14T04:10:00.619Z,8.93
2023-04-14T04:12:48.742Z,10.73
2023-04-14T04:15:35.772Z,8.50
2023-04-14T04:18:22.824Z,11.55
2023-04-14T04:21:10.701Z,9.05
2023-04-14T04:23:58.759Z,9.13
2023-04-14T04:26:44.463Z,11.07
2023-04-14T04:29:30.368Z,10.57
2023-04-14T04:32:17.110Z,9.52
2023-04-14T04:35:05.044Z,13.70
2023-04-14T04:37:51.662Z,14.45
2023-04-14T04:40:41.046Z,12.77
2023-04-14T04:43:34.267Z,10.10
2023-04-14T04:46:48.600Z,10.82
2023-04-14T04:49:34.929Z,7.80
2023-04-14T04:52:22.171Z,10.30
2023-04-14T04:55:08.823Z,11.45
2023-04-14T04:57:54.240Z,9.10
2023-04-14T05:00:39.933Z,9.07
2023-04-14T05:03:25.799Z,9.85
2023-04-14T05:06:11.294Z,9.15
2023-04-14T05:08:57.714Z,11.32
2023-04-14T05:11:43.444Z,14.23
2023-04-14T05:14:29.309Z,15.48
2023-04-14T05:17:14.667Z,12.98
2023-04-14T05:20:03.607Z,13.80
2023-04-14T05:22:49.611Z,15.05
2023-04-14T05:25:36.089Z,12.30
2023-04-14T05:28:24.035Z,16.35
2023-04-14T05:31:10.639Z,10.73
2023-04-14T05:33:57.362Z,16.33
2023-04-14T05:36:43.014Z,13.77
2023-04-14T05:39:28.545Z,15.25
2023-04-14T05:42:14.017Z,16.05
2023-04-14T05:44:59.424Z,12.50
2023-04-14T05:47:46.272Z,10.98
2023-04-14T05:50:37.564Z,12.15
2023-04-14T05:53:23.738Z,14.00
2023-04-14T05:56:11.609Z,12.05
2023-04-14T05:59:02.660Z,9.25
2023-04-14T06:04:34.831Z,10.57
2023-04-14T06:07:20.975Z,15.80
2023-04-14T06:10:08.724Z,19.52
2023-04-14T06:12:54.836Z,14.00
2023-04-14T06:15:40.965Z,14.98
2023-04-14T06:18:26.811Z,12.90
2023-04-14T06:21:12.649Z,11.98
2023-04-14T06:23:58.202Z,11.30
2023-04-14T06:26:43.804Z,10.15
2023-04-14T06:29:29.413Z,15.15
2023-04-14T06:32:15.157Z,12.35
2023-04-14T06:35:01.477Z,12.40
2023-04-14T06:37:47.300Z,10.73
2023-04-14T06:40:35.929Z,13.25
2023-04-14T06:43:30.291Z,13.65
2023-04-14T06:46:17.281Z,9.18
2023-04-14T06:49:03.964Z,12.15
2023-04-14T06:51:49.269Z,8.40
2023-04-14T06:54:36.182Z,8.45
2023-04-14T06:57:21.635Z,6.63
2023-04-14T07:00:09.471Z,7.78
2023-04-14T07:02:55.092Z,8.60
2023-04-14T07:05:41.047Z,12.95
2023-04-14T07:08:31.980Z,12.30
2023-04-14T07:11:17.326Z,6.63
2023-04-14T07:14:02.909Z,8.27
2023-04-14T07:16:48.495Z,7.57
2023-04-14T07:19:33.934Z,8.07
2023-04-14T07:22:19.400Z,7.78
2023-04-14T07:25:05.012Z,7.82
2023-04-14T07:28:02.653Z,7.35
2023-04-14T07:30:50.149Z,6.90
2023-04-14T07:33:36.400Z,9.38
2023-04-14T07:36:22.240Z,11.75
2023-04-14T07:39:08.061Z,5.97
2023-04-14T07:41:53.666Z,5.85
2023-04-14T07:44:39.066Z,5.60
2023-04-14T07:47:24.632Z,5.53
2023-04-14T07:50:10.955Z,6.40
2023-04-14T07:52:56.544Z,5.88
2023-04-14T07:55:42.183Z,7.60
2023-04-14T07:58:29.266Z,6.82
2023-04-14T08:01:15.692Z,5.35
2023-04-14T08:04:01.435Z,4.35
2023-04-14T08:06:46.992Z,5.82
2023-04-14T08:09:32.569Z,7.70
2023-04-14T08:12:18.144Z,4.82
2023-04-14T08:15:03.661Z,4.28
2023-04-14T08:17:49.705Z,4.88
2023-04-14T08:20:35.112Z,7.97
2023-04-14T08:23:21.300Z,5.15
2023-04-14T08:26:07.174Z,6.35
2023-04-14T08:28:52.464Z,6.20
2023-04-14T08:31:38.095Z,5.43
2023-04-14T08:34:28.134Z,5.28
2023-04-14T08:37:14.314Z,7.20
2023-04-14T08:39:59.806Z,6.43
2023-04-14T08:42:46.043Z,5.30
2023-04-14T08:45:34.903Z,8.35
2023-04-14T08:48:22.979Z,8.20
2023-04-14T08:51:34.269Z,7.60
2023-04-14T08:54:21.602Z,5.68
2023-04-14T08:57:12.347Z,5.50
2023-04-14T08:59:58.709Z,8.48
2023-04-14T09:02:44.904Z,11.13
2023-04-14T09:05:30.583Z,7.18
2023-04-14T09:08:16.880Z,9.27
2023-04-14T09:11:03.780Z,7.85
2023-04-14T09:13:50.048Z,6.18
2023-04-14T09:16:36.141Z,6.32
2023-04-14T09:19:26.141Z,7.00
2023-04-14T09:22:12.059Z,7.75
2023-04-14T09:24:58.556Z,5.43
2023-04-14T09:27:44.445Z,5.10
2023-04-14T09:30:31.852Z,7.93
2023-04-14T09:36:18.598Z,4.40
2023-04-14T09:39:16.945Z,5.40
2023-04-14T09:42:04.177Z,5.05
2023-04-14T09:44:54.874Z,5.50
2023-04-14T09:47:40.394Z,6.38
2023-04-14T09:50:25.574Z,8.73
2023-04-14T09:53:11.499Z,7.82
2023-04-14T09:56:00.022Z,5.82
2023-04-14T09:58:46.288Z,7.47
2023-04-14T10:01:34.440Z,6.68
2023-04-14T10:04:24.002Z,6.10
2023-04-14T10:07:12.219Z,5.43
2023-04-14T10:09:58.136Z,6.88
2023-04-14T10:12:44.612Z,4.25
2023-04-14T10:15:31.152Z,5.32
2023-04-14T10:18:16.713Z,5.53
2023-04-14T10:21:03.610Z,4.43
2023-04-14T10:23:49.261Z,4.43
2023-04-14T10:26:36.399Z,6.45
2023-04-14T10:29:22.503Z,6.88
2023-04-14T10:32:13.460Z,6.80
2023-04-14T10:35:02.174Z,7.75
2023-04-14T10:37:52.092Z,6.38
2023-04-14T10:40:48.305Z,4.35
2023-04-14T10:43:36.637Z,6.32
2023-04-14T10:46:22.962Z,6.38
2023-04-14T10:49:12.324Z,6.30
2023-04-14T10:52:16.653Z,5.60
2023-04-14T10:55:09.443Z,8.13
2023-04-14T10:58:08.884Z,3.85
2023-04-14T11:00:57.081Z,6.43
2023-04-14T11:03:46.135Z,7.30
2023-04-14T11:06:47.457Z,6.32
2023-04-14T11:09:38.023Z,6.65
2023-04-14T11:12:26.325Z,6.40
2023-04-14T11:15:12.179Z,5.78
2023-04-14T11:18:12.383Z,5.13
2023-04-14T11:21:06.217Z,6.38
2023-04-14T11:23:52.000Z,6.25
2023-04-14T11:26:37.323Z,7.30
2023-04-14T11:29:23.100Z,5.97
2023-04-14T11:32:09.136Z,6.72
2023-04-14T11:34:54.669Z,5.28
2023-04-14T11:37:41.171Z,5.10
2023-04-14T11:40:30.932Z,7.30
2023-04-14T11:43:17.973Z,3.83
2023-04-14T11:46:09.672Z,6.13
2023-04-14T11:48:58.672Z,5.63
2023-04-14T11:51:45.553Z,5.40
2023-04-14T11:54:39.980Z,4.28
2023-04-14T11:57:31.547Z,6.47
2023-04-14T12:00:18.556Z,6.38
2023-04-14T12:03:05.302Z,7.32
2023-04-14T12:05:56.873Z,4.72
2023-04-14T12:08:43.842Z,6.88
2023-04-14T12:11:29.642Z,4.70
2023-04-14T12:14:16.321Z,10.75
2023-04-14T12:17:03.237Z,4.72
2023-04-14T12:19:51.660Z,6.20
2023-04-14T12:22:37.367Z,3.83
2023-04-14T12:25:23.413Z,4.30
2023-04-14T12:28:09.266Z,5.07
2023-04-14T12:31:01.085Z,6.35
2023-04-14T12:36:49.030Z,4.65
2023-04-14T12:42:54.113Z,5.07
2023-04-14T12:45:43.662Z,6.72
2023-04-14T12:48:48.476Z,6.60
2023-04-14T12:51:40.162Z,5.20
2023-04-14T12:54:25.837Z,6.20
2023-04-14T12:57:12.438Z,7.43
2023-04-14T12:59:59.576Z,9.63
2023-04-14T13:02:46.449Z,6.40
2023-04-14T13:05:32.592Z,7.15
2023-04-14T13:08:17.975Z,5.53
2023-04-14T13:11:03.626Z,5.05
2023-04-14T13:13:49.470Z,4.10
2023-04-14T13:16:35.174Z,4.45
2023-04-14T13:19:20.875Z,5.55
2023-04-14T13:22:06.461Z,7.55
2023-04-14T13:24:51.930Z,6.40
2023-04-14T13:27:37.418Z,7.97
2023-04-14T13:30:22.661Z,5.70
2023-04-14T13:33:11.375Z,7.45
2023-04-14T13:35:57.365Z,8.27
2023-04-14T13:38:42.965Z,4.15
2023-04-14T13:41:28.350Z,4.13
2023-04-14T13:44:13.735Z,5.07
2023-04-14T13:46:59.011Z,5.25
2023-04-14T13:49:44.586Z,4.90
2023-04-14T13:52:30.585Z,3.70
2023-04-14T13:55:19.150Z,4.00
2023-04-14T13:58:04.580Z,7.55
2023-04-14T14:00:50.027Z,2.88
2023-04-14T14:03:35.643Z,5.22
2023-04-14T14:06:22.544Z,5.70
2023-04-14T14:09:09.255Z,3.88
2023-04-14T14:11:58.266Z,3.92
2023-04-14T14:14:44.575Z,4.57
2023-04-14T14:17:30.047Z,3.65
2023-04-14T14:20:15.355Z,5.25
2023-04-14T14:23:01.137Z,7.93
2023-04-14T14:25:46.907Z,3.60
2023-04-14T14:28:32.534Z,3.45
2023-04-14T14:31:18.649Z,3.42
2023-04-14T14:34:04.533Z,3.97
2023-04-14T14:36:50.437Z,4.45
2023-04-14T14:39:36.336Z,3.60
2023-04-14T14:42:21.878Z,3.85
2023-04-14T14:45:09.377Z,4.60
2023-04-14T14:47:54.673Z,4.50
2023-04-14T14:50:41.777Z,3.40
2023-04-14T14:53:27.711Z,3.25
2023-04-14T14:56:13.704Z,3.95
2023-04-14T14:58:59.144Z,3.13
2023-04-14T15:01:44.846Z,4.13
2023-04-14T15:04:30.211Z,3.95
2023-04-14T15:07:15.963Z,4.35
2023-04-14T15:10:03.553Z,4.72
2023-04-14T15:12:49.160Z,5.93
2023-04-14T15:15:35.133Z,3.35
2023-04-14T15:18:21.174Z,5.82
2023-04-14T15:21:06.991Z,5.45
2023-04-14T15:23:52.511Z,4.88
2023-04-14T15:26:38.841Z,4.28
2023-04-14T15:29:27.154Z,4.47
2023-04-14T15:32:12.923Z,3.45
2023-04-14T15:34:59.033Z,5.18
2023-04-14T15:37:44.526Z,6.50
2023-04-14T15:40:30.105Z,4.47
2023-04-14T15:43:16.247Z,5.03
2023-04-14T15:46:01.890Z,2.95
2023-04-14T15:48:47.795Z,3.55
2023-04-14T15:51:33.234Z,3.58
2023-04-14T15:54:18.967Z,3.30
2023-04-14T15:57:04.675Z,3.95
2023-04-14T15:59:50.130Z,4.68
2023-04-14T16:02:36.371Z,3.33
2023-04-14T16:05:22.071Z,7.32
2023-04-14T16:08:07.697Z,4.43
2023-04-14T16:10:53.581Z,7.07
2023-04-14T16:13:39.143Z,5.50
2023-04-14T16:16:25.116Z,3.17
2023-04-14T16:19:11.966Z,4.32
2023-04-14T16:21:57.986Z,4.63
2023-04-14T16:24:43.276Z,7.25
2023-04-14T16:27:29.429Z,3.97
2023-04-14T16:30:15.291Z,5.43
2023-04-14T16:33:06.072Z,3.53
2023-04-14T16:36:02.994Z,4.07
2023-04-14T16:38:51.027Z,5.55
2023-04-14T16:41:36.327Z,10.32
2023-04-14T16:44:21.832Z,6.93
2023-04-14T16:47:13.378Z,4.85
2023-04-14T16:50:00.971Z,9.98
2023-04-14T16:52:47.027Z,9.18
2023-04-14T16:55:35.434Z,5.20
2023-04-14T16:58:21.590Z,5.63
2023-04-14T17:01:07.534Z,6.93
2023-04-14T17:03:53.235Z,10.25
2023-04-14T17:06:39.119Z,8.07
2023-04-14T17:09:25.102Z,11.90
2023-04-14T17:12:11.040Z,7.70
2023-04-14T17:14:57.614Z,8.50
2023-04-14T17:17:43.375Z,6.40
2023-04-14T17:20:29.415Z,6.35
2023-04-14T17:23:16.162Z,6.20
2023-04-14T17:26:01.743Z,6.70
2023-04-14T17:28:47.293Z,8.60
2023-04-14T17:31:33.022Z,6.07
2023-04-14T17:34:19.295Z,5.07
2023-04-14T17:37:05.072Z,8.57
2023-04-14T17:39:52.996Z,8.15
2023-04-14T17:42:38.837Z,6.60
2023-04-14T17:45:24.273Z,7.05
2023-04-14T17:48:10.357Z,5.90
2023-04-14T17:50:57.037Z,12.63
2023-04-14T17:53:45.621Z,6.43
2023-04-14T17:56:33.365Z,7.35
2023-04-14T17:59:20.822Z,5.80
2023-04-14T18:02:08.882Z,6.90
2023-04-14T18:04:54.772Z,8.38
2023-04-14T18:07:42.633Z,8.02
2023-04-14T18:10:32.470Z,6.57
2023-04-14T18:13:21.796Z,6.60
2023-04-14T18:16:10.699Z,6.10
2023-04-14T18:18:57.964Z,5.13
2023-04-14T18:21:49.162Z,6.32
2023-04-14T18:24:48.688Z,7.80
2023-04-14T18:30:29.279Z,6.67
2023-04-14T18:33:16.649Z,5.50
2023-04-14T18:36:06.411Z,6.30
2023-04-14T18:38:56.736Z,15.57
2023-04-14T18:41:43.899Z,8.48
2023-04-14T18:44:29.535Z,8.32
2023-04-14T18:47:15.862Z,12.88
2023-04-14T18:50:01.443Z,8.13
2023-04-14T18:52:47.117Z,12.13
2023-04-14T18:55:41.361Z,8.35
2023-04-14T18:58:31.180Z,10.32
2023-04-14T19:01:17.674Z,9.38
2023-04-14T19:04:03.353Z,12.68
2023-04-14T19:06:49.310Z,12.75
2023-04-14T19:09:36.203Z,7.93
2023-04-14T19:12:28.144Z,7.65
2023-04-14T19:15:14.508Z,8.48
2023-04-14T19:18:01.078Z,13.65
2023-04-14T19:20:47.813Z,17.17
2023-04-14T19:23:33.320Z,12.35
2023-04-14T19:26:19.437Z,8.43
2023-04-14T19:29:05.191Z,4.93
2023-04-14T19:31:50.434Z,7.43
2023-04-14T19:34:36.033Z,13.05
2023-04-14T19:37:21.298Z,6.82
2023-04-14T19:40:08.199Z,4.43
2023-04-14T19:42:55.379Z,4.45
2023-04-14T19:45:52.088Z,10.25
2023-04-14T19:48:37.768Z,6.88
2023-04-14T19:51:23.069Z,6.50
2023-04-14T19:54:08.837Z,4.10
2023-04-14T19:56:54.478Z,4.85
2023-04-14T19:59:40.082Z,9.48
2023-04-14T20:02:28.236Z,6.20
2023-04-14T20:05:15.898Z,6.80
2023-04-14T20:08:01.210Z,6.85
2023-04-14T20:10:50.952Z,5.55
2023-04-14T20:13:38.158Z,5.40
2023-04-14T20:16:28.006Z,5.63
2023-04-14T20:19:27.315Z,6.45
2023-04-14T20:22:14.552Z,4.90
2023-04-14T20:25:00.294Z,7.60
2023-04-14T20:27:46.452Z,8.48
2023-04-14T20:30:32.584Z,8.75
2023-04-14T20:33:18.720Z,7.32
2023-04-14T20:36:04.249Z,5.97
2023-04-14T20:38:49.657Z,7.68
2023-04-14T20:41:36.359Z,7.93
2023-04-14T20:44:22.313Z,7.95
2023-04-14T20:47:08.302Z,8.43
2023-04-14T20:49:54.047Z,8.73
2023-04-14T20:52:40.456Z,10.95
2023-04-14T20:55:26.208Z,4.78
2023-04-14T20:58:11.917Z,8.38
2023-04-14T21:00:57.689Z,9.93
2023-04-14T21:03:43.956Z,6.28
2023-04-14T21:06:31.680Z,9.30
2023-04-14T21:09:18.748Z,12.57
2023-04-14T21:12:15.383Z,9.40
2023-04-14T21:15:47.623Z,7.13
2023-04-14T21:18:11.165Z,7.53
2023-04-14T21:20:56.711Z,8.25
2023-04-14T21:23:42.335Z,9.65
2023-04-14T21:26:28.665Z,11.75
2023-04-14T21:29:14.109Z,9.02
2023-04-14T21:31:59.766Z,9.15
2023-04-14T21:34:46.107Z,13.85
2023-04-14T21:37:32.791Z,7.82
2023-04-14T21:40:18.131Z,11.50
2023-04-14T21:43:03.581Z,10.05
2023-04-14T21:45:50.039Z,12.95
2023-04-14T21:48:35.752Z,14.15
2023-04-14T21:51:21.867Z,11.57
2023-04-14T21:56:36.571Z,10.57
2023-04-14T21:59:22.756Z,11.50
2023-04-14T22:02:09.354Z,7.93
2023-04-14T22:04:54.773Z,14.43
2023-04-14T22:07:41.286Z,9.95
2023-04-14T22:10:32.035Z,9.00
2023-04-14T22:13:17.989Z,11.50
2023-04-14T22:16:03.781Z,9.73
2023-04-14T22:18:49.435Z,10.43
2023-04-14T22:21:34.930Z,8.65
2023-04-14T22:24:20.473Z,12.57
2023-04-14T22:27:06.500Z,10.52
2023-04-14T22:29:52.318Z,8.52
2023-04-14T22:32:37.910Z,8.73
2023-04-14T22:35:23.345Z,10.45
2023-04-14T22:38:08.862Z,6.88
2023-04-14T22:40:54.476Z,10.95
2023-04-14T22:43:40.155Z,11.35
2023-04-14T22:46:25.893Z,10.70
2023-04-14T22:49:11.605Z,8.00
2023-04-14T22:51:57.321Z,7.13
2023-04-14T22:54:42.585Z,8.40
2023-04-14T22:57:28.263Z,14.95
2023-04-14T23:00:16.186Z,17.70
2023-04-14T23:03:02.966Z,7.53
2023-04-14T23:05:48.787Z,10.50
2023-04-14T23:08:34.182Z,11.23
2023-04-14T23:11:21.115Z,14.75
2023-04-14T23:14:07.180Z,7.72
2023-04-14T23:16:52.621Z,7.35
2023-04-14T23:19:38.488Z,11.90
2023-04-14T23:22:24.617Z,9.80
2023-04-14T23:25:10.710Z,11.35
2023-04-14T23:27:56.380Z,8.88
2023-04-14T23:30:45.289Z,10.98
2023-04-14T23:33:31.087Z,7.60
2023-04-14T23:36:16.732Z,10.38
2023-04-14T23:39:02.512Z,5.97
2023-04-14T23:41:48.058Z,12.80
2023-04-14T23:44:33.684Z,7.35
2023-04-14T23:47:19.492Z,10.02
2023-04-14T23:50:05.501Z,6.50
2023-04-14T23:52:51.372Z,7.35
2023-04-14T23:55:37.311Z,7.30
2023-04-14T23:58:26.835Z,8.75
